Time;durP1;ratioP1;P1;durP2;ratioP2;P2;SDS_P1;SDS_P2;PMS_P1;PMS_P2;Temp;Humidity;BMP_temperature;BMP_pressure;BME280_temperature;BME280_humidity;BME280_pressure;Samples;Min_cycle;Max_cycle;Signal;HPM_P1;HPM_P2
2020/12/09 00:02:06;;;;;;;;;;;3.20;91.60;;;;;;5012662;28;20025;-81
2020/12/09 00:04:32;;;;;;;6.30;3.33;;;3.20;91.60;;;;;;5011214;28;20293;-84
2020/12/09 00:06:57;;;;;;;;;;;3.30;91.50;;;;;;5012454;28;20053;-83
2020/12/09 00:09:23;;;;;;;6.47;3.78;;;3.30;91.50;;;;;;5009260;28;19906;-81
2020/12/09 00:11:51;;;;;;;;;;;3.30;91.40;;;;;;5010000;28;20034;-82
2020/12/09 00:14:17;;;;;;;6.18;3.78;;;3.40;91.30;;;;;;5010709;28;19928;-82
2020/12/09 00:16:43;;;;;;;;;;;3.40;91.20;;;;;;5009591;28;20025;-82
2020/12/09 00:19:08;;;;;;;4.72;2.88;;;3.40;91.10;;;;;;5009120;28;19909;-82
2020/12/09 00:21:34;;;;;;;;;;;3.50;91.00;;;;;;5010169;28;20612;-82
2020/12/09 00:24:00;;;;;;;5.03;2.90;;;3.50;91.00;;;;;;5009645;28;19956;-82
2020/12/09 00:26:26;;;;;;;;;;;3.50;90.90;;;;;;5011524;28;20068;-82
2020/12/09 00:28:53;;;;;;;6.55;3.22;;;3.50;90.90;;;;;;5010734;28;19906;-83
2020/12/09 00:31:22;;;;;;;5.57;3.17;;;3.60;90.80;;;;;;5010457;28;20026;-79
2020/12/09 00:33:49;;;;;;;4.63;2.92;;;3.60;90.80;;;;;;5008430;28;20056;-81
2020/12/09 00:36:17;;;;;;;5.25;2.83;;;3.60;90.70;;;;;;5009730;28;20052;-81
2020/12/09 00:38:44;;;;;;;5.53;2.80;;;3.60;90.60;;;;;;5009179;28;20552;-81
2020/12/09 00:41:17;;;;;;;4.30;2.40;;;3.60;90.60;;;;;;5007412;28;20133;-81
2020/12/09 00:43:43;;;;;;;3.47;2.45;;;3.70;90.60;;;;;;5008880;28;20053;-82
2020/12/09 00:46:13;;;;;;;;;;;3.70;90.50;;;;;;5008614;28;20037;-81
2020/12/09 00:48:39;;;;;;;5.05;3.00;;;3.60;90.40;;;;;;5009937;28;19930;-81
2020/12/09 00:51:05;;;;;;;;;;;3.60;90.40;;;;;;5009111;28;20037;-81
2020/12/09 00:53:30;;;;;;;5.40;2.95;;;3.70;90.40;;;;;;5009985;28;19920;-81
2020/12/09 00:55:56;;;;;;;;;;;3.70;90.40;;;;;;5009634;28;20029;-82
2020/12/09 00:58:21;;;;;;;4.63;2.40;;;3.80;90.30;;;;;;5008504;28;19921;-81
2020/12/09 01:00:47;;;;;;;;;;;3.70;90.20;;;;;;5009699;28;20030;-82
2020/12/09 01:03:12;;;;;;;4.40;2.80;;;3.70;90.30;;;;;;5008698;28;19910;-82
2020/12/09 01:05:38;;;;;;;;;;;3.70;90.30;;;;;;5010543;28;20030;-81
2020/12/09 01:08:04;;;;;;;5.65;2.35;;;3.70;90.30;;;;;;5008309;28;19995;-82
2020/12/09 01:10:29;;;;;;;;;;;3.70;90.30;;;;;;5009152;28;20036;-81
2020/12/09 01:12:55;;;;;;;9.82;2.25;;;3.70;90.50;;;;;;5008300;28;20297;-81
2020/12/09 01:15:20;;;;;;;;;;;3.80;90.10;;;;;;5008531;28;20081;-81
2020/12/09 01:17:46;;;;;;;3.97;1.92;;;3.80;90.10;;;;;;5008090;28;19910;-81
2020/12/09 01:20:11;;;;;;;;;;;3.80;90.00;;;;;;5010008;28;20037;-82
2020/12/09 01:22:37;;;;;;;3.92;1.98;;;3.90;90.10;;;;;;5008485;28;19917;-81
2020/12/09 01:25:03;;;;;;;;;;;3.90;89.50;;;;;;5008793;28;20084;-82
2020/12/09 01:27:28;;;;;;;3.80;1.65;;;3.90;89.40;;;;;;5008345;28;19905;-81
2020/12/09 01:29:54;;;;;;;;;;;4.00;89.40;;;;;;5008118;28;20490;-82
2020/12/09 01:32:21;;;;;;;2.65;1.55;;;3.90;89.30;;;;;;5007867;28;19913;-81
2020/12/09 01:34:47;;;;;;;3.92;2.13;;;4.00;89.20;;;;;;5007845;28;20026;-81
2020/12/09 01:37:13;;;;;;;;;;;4.00;89.10;;;;;;5007869;28;20672;-81
2020/12/09 01:39:39;;;;;;;2.28;1.35;;;4.00;89.00;;;;;;5007401;28;19909;-81
2020/12/09 01:42:05;;;;;;;2.83;1.40;;;4.00;88.90;;;;;;5007553;28;20041;-80
2020/12/09 01:44:31;;;;;;;;;;;4.00;88.90;;;;;;5008257;28;20022;-82
2020/12/09 01:47:01;;;;;;;2.72;1.52;;;4.10;88.90;;;;;;5009592;28;20028;-81
2020/12/09 01:49:26;;;;;;;2.20;1.20;;;4.00;88.80;;;;;;5008322;28;20497;-81
2020/12/09 01:51:52;;;;;;;;;;;4.10;88.60;;;;;;5009385;28;20050;-81
2020/12/09 01:54:18;;;;;;;2.25;1.15;;;4.20;88.40;;;;;;5008692;28;19917;-81
2020/12/09 01:56:43;;;;;;;;;;;4.20;88.30;;;;;;5006820;28;20042;-81
2020/12/09 01:59:09;;;;;;;3.83;1.73;;;4.20;88.10;;;;;;5007105;28;20555;-81
2020/12/09 02:01:35;;;;;;;;;;;4.30;88.10;;;;;;5006690;28;20028;-81
2020/12/09 02:04:01;;;;;;;3.08;1.08;;;4.30;87.80;;;;;;5007591;28;19909;-79
2020/12/09 02:06:26;;;;;;;;;;;4.30;87.60;;;;;;5007397;28;20044;-79
2020/12/09 02:08:52;;;;;;;1.80;1.00;;;4.30;87.60;;;;;;5006507;28;20381;-80
2020/12/09 02:11:17;;;;;;;;;;;4.30;87.40;;;;;;5006546;28;20042;-80
2020/12/09 02:13:45;;;;;;;4.88;1.23;;;4.40;87.40;;;;;;5008416;28;19962;-80
2020/12/09 02:16:17;;;;;;;2.30;1.25;;;4.40;87.30;;;;;;5005825;28;20238;-80
2020/12/09 02:18:43;;;;;;;2.22;0.95;;;4.40;87.30;;;;;;5006842;28;20033;-79
2020/12/09 02:21:09;;;;;;;3.17;1.63;;;4.30;87.30;;;;;;5006176;28;20026;-78
2020/12/09 02:23:34;;;;;;;;;;;4.40;87.20;;;;;;5008039;28;20040;-79
2020/12/09 02:26:00;;;;;;;3.60;1.23;;;4.30;87.10;;;;;;5006602;28;20020;-79
2020/12/09 02:28:26;;;;;;;;;;;4.30;87.20;;;;;;5006889;28;20386;-79
2020/12/09 02:30:52;;;;;;;2.13;1.00;;;4.30;87.40;;;;;;5005755;28;19906;-79
2020/12/09 02:33:17;;;;;;;;;;;4.30;87.40;;;;;;5007871;28;20037;-80
2020/12/09 02:35:43;;;;;;;2.65;1.35;;;4.20;87.50;;;;;;5009845;28;20004;-79
2020/12/09 02:38:10;;;;;;;2.80;1.13;;;4.20;87.60;;;;;;5010918;28;20056;-78
2020/12/09 02:40:37;;;;;;;3.42;1.70;;;4.20;87.70;;;;;;5011171;28;20056;-79
2020/12/09 02:43:02;;;;;;;3.08;1.13;;;4.20;87.80;;;;;;5015569;28;20033;-79
2020/12/09 02:45:28;;;;;;;;;;;4.10;87.80;;;;;;5012001;28;20524;-79
2020/12/09 02:47:54;;;;;;;2.78;1.38;;;4.10;87.90;;;;;;5010997;28;20377;-79
2020/12/09 02:50:20;;;;;;;4.95;1.48;;;4.10;87.90;;;;;;5009901;28;20068;-79
2020/12/09 02:52:46;;;;;;;;;;;4.10;87.90;;;;;;5009936;28;20038;-79
2020/12/09 02:55:11;;;;;;;2.10;1.20;;;4.10;88.00;;;;;;5011502;28;19912;-81
2020/12/09 02:57:37;;;;;;;;;;;4.10;88.00;;;;;;5010848;28;20077;-82
2020/12/09 03:00:06;;;;;;;1.98;1.08;;;4.10;87.90;;;;;;5011026;28;19909;-81
2020/12/09 03:02:32;;;;;;;4.40;1.65;;;4.10;87.90;;;;;;5010167;28;20373;-80
2020/12/09 03:04:57;;;;;;;;;;;4.10;87.80;;;;;;5010340;28;20072;-82
2020/12/09 03:07:23;;;;;;;2.67;0.98;;;4.20;87.70;;;;;;5012019;28;19906;-82
2020/12/09 03:09:48;;;;;;;;;;;4.20;87.50;;;;;;5011753;28;20072;-83
2020/12/09 03:12:14;;;;;;;2.08;0.90;;;4.20;87.30;;;;;;5011484;28;19913;-82
2020/12/09 03:14:40;;;;;;;;;;;4.20;87.10;;;;;;5012077;28;20033;-83
2020/12/09 03:17:05;;;;;;;1.95;0.95;;;4.20;86.90;;;;;;5013017;28;19909;-81
2020/12/09 03:19:31;;;;;;;;;;;4.30;86.60;;;;;;5009937;28;20033;-81
2020/12/09 03:21:56;;;;;;;2.08;0.98;;;4.40;86.20;;;;;;5011600;28;19909;-82
2020/12/09 03:24:22;;;;;;;;;;;4.40;85.80;;;;;;5010777;28;20116;-83
2020/12/09 03:26:48;;;;;;;2.13;1.05;;;4.50;85.60;;;;;;5010341;28;19916;-80
2020/12/09 03:29:13;;;;;;;;;;;4.50;85.50;;;;;;5009517;28;20045;-82
2020/12/09 03:31:39;;;;;;;2.85;0.98;;;4.50;85.40;;;;;;5009336;28;19914;-81
2020/12/09 03:34:04;;;;;;;;;;;4.60;85.20;;;;;;5010207;28;20026;-81
2020/12/09 03:36:30;;;;;;;2.42;0.90;;;4.60;85.00;;;;;;5010080;28;19916;-81
2020/12/09 03:38:55;;;;;;;;;;;4.70;84.60;;;;;;5010766;28;20018;-80
2020/12/09 03:41:21;;;;;;;1.83;0.98;;;4.70;84.30;;;;;;5009052;28;19917;-79
2020/12/09 03:43:46;;;;;;;;;;;4.70;84.20;;;;;;5010620;28;20036;-82
2020/12/09 03:46:12;;;;;;;2.53;1.10;;;4.70;84.10;;;;;;5007899;28;19909;-81
2020/12/09 03:48:38;;;;;;;;;;;4.70;83.90;;;;;;5010807;28;20518;-81
2020/12/09 03:51:03;;;;;;;2.05;0.70;;;4.80;83.70;;;;;;5008863;28;19909;-81
2020/12/09 03:53:32;;;;;;;;;;;4.80;83.50;;;;;;5009534;28;20497;-81
2020/12/09 03:55:59;;;;;;;2.72;1.05;;;4.80;83.30;;;;;;5010202;28;19912;-82
2020/12/09 03:58:24;;;;;;;2.13;0.80;;;4.80;83.40;;;;;;5008005;28;20054;-81
2020/12/09 04:00:50;;;;;;;;;;;4.80;83.40;;;;;;5008639;28;20022;-82
2020/12/09 04:03:15;;;;;;;2.30;0.85;;;4.80;83.50;;;;;;5009160;28;19916;-82
2020/12/09 04:05:41;;;;;;;;;;;4.80;83.50;;;;;;5009869;28;20045;-82
2020/12/09 04:08:07;;;;;;;2.92;1.00;;;4.80;83.50;;;;;;5012480;28;19910;-81
2020/12/09 04:10:32;;;;;;;;;;;4.70;83.40;;;;;;5018158;28;20030;-82
2020/12/09 04:12:58;;;;;;;2.10;0.93;;;4.80;83.30;;;;;;5009486;28;19924;-82
2020/12/09 04:15:23;;;;;;;;;;;4.70;83.20;;;;;;5009673;28;20034;-81
2020/12/09 04:17:49;;;;;;;2.03;0.90;;;4.80;83.00;;;;;;5010091;28;19931;-81
2020/12/09 04:20:15;;;;;;;;;;;4.80;82.70;;;;;;5008821;28;20022;-81
2020/12/09 04:22:41;;;;;;;4.97;1.00;;;4.90;82.60;;;;;;5008025;28;19906;-82
2020/12/09 04:25:06;;;;;;;;;;;4.90;82.40;;;;;;5008871;28;20068;-81
2020/12/09 04:27:32;;;;;;;2.22;0.90;;;4.80;82.40;;;;;;5010178;28;19913;-81
2020/12/09 04:29:57;;;;;;;;;;;4.90;82.30;;;;;;5008845;28;20029;-82
2020/12/09 04:32:23;;;;;;;1.88;1.00;;;4.90;81.90;;;;;;5015725;28;19904;-81
2020/12/09 04:34:49;;;;;;;;;;;5.00;81.50;;;;;;5015642;28;20517;-82
2020/12/09 04:37:19;;;;;;;2.40;1.00;;;5.00;81.40;;;;;;5009561;28;20003;-83
2020/12/09 04:39:44;;;;;;;3.72;1.17;;;5.10;81.10;;;;;;5009855;28;20029;-83
2020/12/09 04:42:15;;;;;;;;;;;5.00;80.90;;;;;;5010705;28;20620;-84
2020/12/09 04:44:41;;;;;;;2.60;1.02;;;5.10;80.70;;;;;;5009792;28;19984;-78
2020/12/09 04:47:07;;;;;;;;;;;5.20;80.20;;;;;;5009972;28;20609;-79
2020/12/09 04:49:46;;;;;;;3.03;0.80;;;5.20;79.70;;;;;;5007783;28;20001;-80
2020/12/09 04:52:37;;;;;;;2.42;0.90;;;5.20;79.60;;;;;;5007455;28;20042;-79
2020/12/09 04:55:07;;;;;;;1.67;0.73;;;5.30;79.20;;;;;;5003886;28;20030;-80
2020/12/09 04:57:42;;;;;;;3.58;0.70;;;5.30;78.90;;;;;;5006327;28;20061;-78
2020/12/09 05:00:11;;;;;;;2.08;0.80;;;5.30;78.40;;;;;;5008435;28;20445;-79
2020/12/09 05:02:40;;;;;;;2.83;0.88;;;5.40;77.80;;;;;;5005455;28;20046;-79
2020/12/09 05:05:06;;;;;;;1.55;0.70;;;5.40;77.70;;;;;;5005787;28;20375;-80
2020/12/09 05:07:35;;;;;;;;;;;5.40;76.70;;;;;;5006388;28;20037;-80
2020/12/09 05:10:03;;;;;;;1.40;0.70;;;5.40;76.40;;;;;;5007241;28;19956;-80
2020/12/09 05:12:43;;;;;;;1.30;0.68;;;5.50;76.00;;;;;;5007105;28;20041;-82
2020/12/09 05:15:17;;;;;;;1.83;0.80;;;5.60;75.00;;;;;;5007850;28;20041;-80
2020/12/09 05:18:05;;;;;;;1.15;0.60;;;5.60;74.50;;;;;;5008106;28;20026;-80
2020/12/09 05:20:36;;;;;;;0.95;0.57;;;5.80;73.70;;;;;;5007211;28;20506;-80
2020/12/09 05:23:09;;;;;;;1.17;0.40;;;5.80;73.30;;;;;;5007162;28;20390;-79
2020/12/09 05:25:38;;;;;;;1.70;0.63;;;5.80;73.00;;;;;;5008419;28;20026;-81
2020/12/09 05:28:05;;;;;;;1.88;0.50;;;5.80;73.00;;;;;;5007008;28;20537;-80
2020/12/09 05:30:57;;;;;;;2.67;0.70;;;5.80;73.00;;;;;;5006539;28;20117;-80
2020/12/09 05:33:32;;;;;;;1.23;0.80;;;5.80;72.80;;;;;;5004293;28;20084;-80
2020/12/09 05:36:01;;;;;;;2.53;0.77;;;5.90;72.30;;;;;;5007204;28;20133;-80
2020/12/09 05:38:27;;;;;;;1.90;0.60;;;5.90;72.40;;;;;;5007959;28;20088;-81
2020/12/09 05:40:55;;;;;;;2.65;1.30;;;5.90;72.20;;;;;;5007697;28;20018;-82
2020/12/09 05:43:21;;;;;;;3.35;0.75;;;5.90;71.90;;;;;;5007966;28;20405;-82
2020/12/09 05:45:46;;;;;;;;;;;5.90;71.90;;;;;;5008320;28;20033;-82
2020/12/09 05:48:23;;;;;;;1.95;0.80;;;5.90;71.70;;;;;;5007395;28;20294;-80
2020/12/09 05:50:57;;;;;;;1.55;0.80;;;5.90;71.90;;;;;;5005675;28;20636;-80
2020/12/09 05:53:24;;;;;;;7.15;2.67;;;5.90;71.80;;;;;;5007453;28;20068;-80
2020/12/09 05:55:56;;;;;;;7.85;3.42;;;5.90;71.90;;;;;;5007241;28;20069;-80
2020/12/09 05:58:28;;;;;;;27.83;3.20;;;5.80;71.90;;;;;;5004837;28;20053;-81
2020/12/09 06:01:18;;;;;;;2.10;1.20;;;5.80;71.60;;;;;;5006317;28;20026;-81
2020/12/09 06:03:48;;;;;;;3.67;1.40;;;5.90;72.00;;;;;;5006010;28;20028;-81
2020/12/09 06:06:20;;;;;;;10.30;1.75;;;5.90;71.70;;;;;;5007442;28;20026;-80
2020/12/09 06:08:53;;;;;;;3.40;1.00;;;5.90;71.70;;;;;;5006235;28;20026;-81
2020/12/09 06:11:24;;;;;;;4.25;1.52;;;5.80;71.80;;;;;;5010742;28;20096;-82
2020/12/09 06:13:50;;;;;;;2.47;1.20;;;5.80;71.70;;;;;;5008360;28;20478;-81
2020/12/09 06:16:20;;;;;;;;;;;5.80;71.60;;;;;;5011614;28;20040;-82
2020/12/09 06:18:56;;;;;;;4.05;1.75;;;5.80;71.60;;;;;;5009936;28;20003;-81
2020/12/09 06:21:25;;;;;;;3.78;1.80;;;5.80;71.90;;;;;;5010955;28;20057;-82
2020/12/09 06:23:54;;;;;;;5.63;2.78;;;5.80;71.90;;;;;;5019315;28;20034;-82
2020/12/09 06:26:19;;;;;;;6.25;3.10;;;5.80;71.80;;;;;;5012553;28;20021;-81
2020/12/09 06:28:46;;;;;;;;;;;5.80;71.80;;;;;;5011560;28;20030;-82
2020/12/09 06:31:16;;;;;;;7.45;3.70;;;5.80;71.80;;;;;;5011181;28;19913;-83
2020/12/09 06:33:48;;;;;;;7.35;4.47;;;5.80;71.50;;;;;;5010988;28;20453;-80
2020/12/09 06:36:26;;;;;;;3.03;2.08;;;5.80;71.40;;;;;;5009338;28;20026;-80
2020/12/09 06:39:12;;;;;;;3.28;2.65;;;5.90;71.00;;;;;;5010465;28;20076;-74
2020/12/09 06:41:46;;;;;;;2.60;1.77;;;5.90;70.70;;;;;;5011988;28;20029;-82
2020/12/09 06:44:15;;;;;;;1.77;0.85;;;6.00;70.50;;;;;;5009783;28;20034;-82
2020/12/09 06:46:44;;;;;;;1.60;0.85;;;6.00;70.30;;;;;;5008909;28;20497;-81
2020/12/09 06:49:34;;;;;;;1.77;0.90;;;6.00;70.10;;;;;;5011318;28;20061;-80
2020/12/09 06:52:23;;;;;;;0.90;0.60;;;6.10;70.00;;;;;;5007846;28;20107;-80
2020/12/09 06:54:49;;;;;;;3.75;0.90;;;6.00;70.30;;;;;;5009799;28;20038;-81
2020/12/09 06:57:35;;;;;;;;;;;6.10;70.40;;;;;;5010964;28;20141;-80
2020/12/09 07:00:09;;;;;;;3.20;1.80;;;6.10;70.40;;;;;;5010738;28;19905;-81
2020/12/09 07:02:35;;;;;;;2.45;1.50;;;6.10;70.60;;;;;;5011111;28;20056;-81
2020/12/09 07:05:00;;;;;;;;;;;6.20;70.50;;;;;;5003412;28;20125;-81
2020/12/09 07:07:27;;;;;;;3.72;1.95;;;6.30;70.40;;;;;;5010248;28;19936;-82
2020/12/09 07:09:53;;;;;;;3.45;2.03;;;6.60;69.80;;;;;;5010865;28;20474;-83
2020/12/09 07:12:19;;;;;;;;;;;6.80;69.40;;;;;;5010560;28;20113;-81
2020/12/09 07:14:48;;;;;;;9.35;1.90;;;6.80;68.50;;;;;;5010845;28;20475;-83
2020/12/09 07:17:16;;;;;;;3.95;1.55;;;6.90;68.20;;;;;;5011112;28;20551;-83
2020/12/09 07:19:42;;;;;;;3.65;1.67;;;7.00;68.30;;;;;;5010746;28;20026;-83
2020/12/09 07:22:07;;;;;;;;;;;7.10;67.50;;;;;;5011399;28;20036;-83
2020/12/09 07:24:33;;;;;;;3.80;1.92;;;7.20;67.40;;;;;;5011402;28;19913;-81
2020/12/09 07:26:58;;;;;;;;;;;7.10;67.70;;;;;;5012130;28;20144;-82
2020/12/09 07:29:24;;;;;;;3.60;1.90;;;7.10;67.90;;;;;;5010988;28;19909;-83
2020/12/09 07:31:50;;;;;;;;;;;7.10;67.70;;;;;;5012620;28;20032;-83
2020/12/09 07:34:15;;;;;;;3.95;2.08;;;7.10;67.70;;;;;;5011603;28;19905;-83
2020/12/09 07:36:49;;;;;;;;;;;7.00;68.00;;;;;;5013271;28;20495;-84
2020/12/09 07:39:26;;;;;;;3.63;1.98;;;7.00;68.20;;;;;;5011432;28;19915;-84
2020/12/09 07:41:55;;;;;;;4.50;2.00;;;6.90;69.50;;;;;;5013201;28;20056;-83
2020/12/09 07:44:21;;;;;;;5.82;2.97;;;6.90;69.10;;;;;;5011256;28;20024;-83
2020/12/09 07:46:53;;;;;;;;;;;6.90;69.70;;;;;;4994616;28;20041;-82
2020/12/09 07:49:19;;;;;;;4.80;3.03;;;7.10;69.20;;;;;;5010979;28;19928;-82
2020/12/09 07:51:45;;;;;;;;;;;7.10;68.90;;;;;;5010572;28;20038;-83
2020/12/09 07:54:11;;;;;;;4.20;2.80;;;7.10;69.30;;;;;;5010377;28;19909;-83
2020/12/09 07:56:37;;;;;;;5.13;3.10;;;7.10;69.30;;;;;;5009474;28;20069;-83
2020/12/09 07:59:02;;;;;;;;;;;7.10;69.60;;;;;;5011965;28;20471;-83
2020/12/09 08:01:28;;;;;;;5.13;2.97;;;7.00;70.20;;;;;;5010351;28;19909;-83
2020/12/09 08:03:53;;;;;;;;;;;7.10;70.40;;;;;;5010474;28;20536;-82
2020/12/09 08:06:22;;;;;;;5.28;3.40;;;7.20;70.00;;;;;;5008782;28;19995;-83
2020/12/09 08:08:50;;;;;;;4.88;2.53;;;7.40;69.60;;;;;;5010726;28;20034;-82
2020/12/09 08:11:15;;;;;;;5.65;3.08;;;7.60;68.40;;;;;;5012277;28;20111;-81
2020/12/09 08:13:41;;;;;;;;;;;7.70;68.10;;;;;;5012232;28;20069;-81
2020/12/09 08:16:14;;;;;;;8.82;2.70;;;7.80;67.80;;;;;;5009664;28;19917;-81
2020/12/09 08:18:42;;;;;;;6.07;3.45;;;7.90;67.70;;;;;;5008571;28;20060;-82
2020/12/09 08:21:11;;;;;;;4.88;2.85;;;8.00;67.50;;;;;;5007906;28;20350;-81
2020/12/09 08:23:48;;;;;;;7.72;4.72;;;8.00;67.20;;;;;;5008126;28;20033;-82
2020/12/09 08:26:30;;;;;;;5.57;2.47;;;8.10;67.40;;;;;;5007990;28;20479;-82
2020/12/09 08:28:57;;;;;;;13.35;4.10;;;8.30;66.90;;;;;;5008688;28;20070;-82
2020/12/09 08:31:23;;;;;;;5.80;3.30;;;8.50;66.30;;;;;;5009030;28;20032;-81
2020/12/09 08:33:50;;;;;;;;;;;8.60;65.10;;;;;;5008455;28;20038;-81
2020/12/09 08:36:17;;;;;;;6.50;2.47;;;8.60;65.00;;;;;;5008277;28;19909;-81
2020/12/09 08:38:49;;;;;;;4.70;2.75;;;8.70;64.90;;;;;;5008682;28;20030;-83
2020/12/09 08:41:22;;;;;;;7.38;4.22;;;8.90;64.60;;;;;;5007838;28;20112;-80
2020/12/09 08:43:49;;;;;;;9.15;3.90;;;9.10;64.10;;;;;;5007831;28;20030;-81
2020/12/09 08:46:14;;;;;;;4.70;3.25;;;9.10;62.90;;;;;;5007251;28;20033;-81
2020/12/09 08:48:41;;;;;;;;;;;9.10;63.00;;;;;;5009406;28;20072;-81
2020/12/09 08:51:07;;;;;;;4.63;2.83;;;9.10;62.90;;;;;;5008392;28;20433;-81
2020/12/09 08:53:34;;;;;;;3.80;2.63;;;9.10;62.80;;;;;;5007612;28;20038;-81
2020/12/09 08:56:00;;;;;;;4.07;2.70;;;9.30;62.80;;;;;;5007127;28;20039;-81
2020/12/09 08:58:26;;;;;;;;;;;9.30;62.30;;;;;;5007647;28;20050;-81
2020/12/09 09:00:51;;;;;;;5.15;3.15;;;9.10;62.10;;;;;;5008248;28;19909;-81
2020/12/09 09:03:19;;;;;;;;;;;9.10;62.90;;;;;;5007824;28;20065;-81
2020/12/09 09:05:46;;;;;;;6.90;3.65;;;8.90;63.30;;;;;;5007171;28;20177;-80
2020/12/09 09:08:15;;;;;;;7.55;3.30;;;9.00;63.70;;;;;;5007058;28;20028;-79
2020/12/09 09:10:42;;;;;;;6.28;3.75;;;8.90;63.60;;;;;;5008132;28;20029;-81
2020/12/09 09:13:09;;;;;;;5.03;2.97;;;9.00;63.30;;;;;;5007858;28;20104;-82
2020/12/09 09:15:35;;;;;;;20.20;10.55;;;8.90;63.50;;;;;;5008482;28;20509;-82
2020/12/09 09:18:02;;;;;;;15.45;9.05;;;8.60;64.60;;;;;;5007371;28;20133;-83
2020/12/09 09:20:28;;;;;;;25.35;14.45;;;8.50;65.20;;;;;;5008207;28;20283;-82
2020/12/09 09:22:54;;;;;;;6.93;4.28;;;8.30;65.90;;;;;;5007840;28;20270;-83
2020/12/09 09:25:20;;;;;;;;;;;8.20;66.80;;;;;;5007905;28;20466;-82
2020/12/09 09:27:47;;;;;;;6.03;2.95;;;8.10;68.00;;;;;;5008145;28;19909;-81
2020/12/09 09:30:13;;;;;;;4.97;3.25;;;8.10;68.20;;;;;;5007118;28;20080;-80
2020/12/09 09:32:39;;;;;;;;;;;7.90;68.60;;;;;;5007120;28;20141;-77
2020/12/09 09:35:05;;;;;;;6.22;3.58;;;7.90;69.00;;;;;;5006698;28;20008;-82
2020/12/09 09:37:31;;;;;;;6.22;3.58;;;8.00;69.10;;;;;;5007316;28;20022;-81
2020/12/09 09:39:56;;;;;;;;;;;8.00;68.10;;;;;;5008418;28;20034;-81
2020/12/09 09:42:22;;;;;;;7.15;3.08;;;8.10;67.50;;;;;;5007966;28;19940;-83
2020/12/09 09:44:49;;;;;;;4.13;2.63;;;8.20;67.90;;;;;;5012269;28;20105;-83
2020/12/09 09:47:16;;;;;;;6.05;2.72;;;8.20;67.20;;;;;;5011072;28;20524;-82
2020/12/09 09:49:41;;;;;;;;;;;8.30;67.80;;;;;;5011093;28;20346;-80
2020/12/09 09:52:07;;;;;;;5.00;3.00;;;8.30;66.90;;;;;;5010327;28;19920;-81
2020/12/09 09:54:33;;;;;;;;;;;8.40;67.30;;;;;;5011855;28;20025;-81
2020/12/09 09:56:58;;;;;;;6.22;2.92;;;8.40;66.60;;;;;;5010192;28;19932;-81
2020/12/09 09:59:24;;;;;;;;;;;8.40;66.40;;;;;;5018015;28;20037;-79
2020/12/09 10:01:53;;;;;;;4.65;2.47;;;8.50;67.00;;;;;;5015557;28;19913;-81
2020/12/09 10:04:22;;;;;;;11.18;6.25;;;8.50;65.70;;;;;;5011903;28;20041;-81
2020/12/09 10:06:50;;;;;;;9.30;4.72;;;8.60;65.70;;;;;;5011749;28;20057;-78
2020/12/09 10:09:17;;;;;;;6.57;4.22;;;8.60;65.50;;;;;;5011703;28;20129;-81
2020/12/09 10:11:43;;;;;;;6.55;3.92;;;8.50;65.80;;;;;;5010311;28;20030;-82
2020/12/09 10:14:08;;;;;;;;;;;8.30;66.00;;;;;;5010983;28;20092;-81
2020/12/09 10:16:38;;;;;;;6.25;4.22;;;8.20;66.60;;;;;;5012329;28;19906;-82
2020/12/09 10:19:04;;;;;;;6.30;3.10;;;8.20;67.30;;;;;;5011270;28;20045;-81
2020/12/09 10:21:30;;;;;;;;;;;8.20;67.10;;;;;;5012488;28;20140;-82
2020/12/09 10:23:57;;;;;;;3.50;2.20;;;8.10;67.40;;;;;;5011668;28;19906;-81
2020/12/09 10:26:33;;;;;;;4.57;2.13;;;8.20;66.70;;;;;;5009885;28;20030;-82
2020/12/09 10:29:01;;;;;;;6.00;2.90;;;8.30;65.60;;;;;;5001100;28;20065;-82
2020/12/09 10:31:46;;;;;;;4.07;1.98;;;8.40;65.60;;;;;;5006476;28;20026;-81
2020/12/09 10:34:15;;;;;;;4.53;1.77;;;8.50;65.30;;;;;;4998731;28;20046;-78
2020/12/09 10:36:48;;;;;;;3.80;1.70;;;8.60;65.60;;;;;;4990909;28;20030;-78
2020/12/09 10:39:16;;;;;;;4.28;2.13;;;8.60;65.00;;;;;;4986166;28;20065;-78
2020/12/09 10:41:42;;;;;;;3.70;1.85;;;8.80;64.50;;;;;;4990175;28;20030;-80
2020/12/09 10:44:08;;;;;;;9.13;2.38;;;9.00;64.30;;;;;;4990454;28;20034;-83
2020/12/09 10:46:35;;;;;;;4.22;2.00;;;9.20;63.60;;;;;;4990681;28;20101;-84
2020/12/09 10:49:04;;;;;;;5.15;2.58;;;9.40;62.50;;;;;;4990889;28;20022;-82
2020/12/09 10:51:30;;;;;;;4.88;2.55;;;9.40;62.10;;;;;;4992125;28;20089;-82
2020/12/09 10:53:55;;;;;;;;;;;9.50;62.50;;;;;;4991318;28;20465;-83
2020/12/09 10:56:29;;;;;;;5.07;1.95;;;9.60;61.00;;;;;;4992730;28;20416;-81
2020/12/09 10:59:02;;;;;;;3.55;1.73;;;9.70;60.00;;;;;;4991327;28;20030;-82
2020/12/09 11:01:30;;;;;;;2.92;1.90;;;9.90;60.30;;;;;;4991572;28;20026;-81
2020/12/09 11:03:56;;;;;;;6.07;1.83;;;10.10;60.80;;;;;;4991368;28;20084;-82
2020/12/09 11:06:32;;;;;;;;;;;10.10;59.40;;;;;;4990999;28;20030;-82
2020/12/09 11:08:58;;;;;;;4.10;1.80;;;10.00;59.50;;;;;;4992375;28;19909;-83
2020/12/09 11:11:27;;;;;;;3.75;1.75;;;9.90;59.50;;;;;;4991219;28;20116;-82
2020/12/09 11:13:53;;;;;;;5.03;2.33;;;9.80;60.10;;;;;;4991236;28;20085;-82
2020/12/09 11:16:21;;;;;;;10.95;2.20;;;9.70;60.90;;;;;;4990668;28;20034;-81
2020/12/09 11:18:47;;;;;;;6.80;2.10;;;9.60;60.90;;;;;;4990771;28;20033;-82
2020/12/09 11:21:21;;;;;;;6.22;3.30;;;9.60;61.30;;;;;;4990954;28;20117;-82
2020/12/09 11:23:48;;;;;;;5.20;3.38;;;9.50;62.40;;;;;;4990286;28;20053;-83
2020/12/09 11:26:15;;;;;;;3.85;2.53;;;9.40;62.10;;;;;;4992403;28;20022;-82
2020/12/09 11:28:41;;;;;;;4.78;3.00;;;9.30;62.60;;;;;;4990984;28;20380;-82
2020/12/09 11:31:06;;;;;;;;;;;9.20;62.50;;;;;;4990835;28;20497;-82
2020/12/09 11:33:32;;;;;;;5.32;2.70;;;9.10;63.00;;;;;;5007101;28;19916;-83
2020/12/09 11:35:58;;;;;;;;;;;9.00;63.90;;;;;;4990960;28;20037;-82
2020/12/09 11:38:28;;;;;;;5.90;2.67;;;8.90;63.60;;;;;;5006111;28;20281;-84
2020/12/09 11:40:54;;;;;;;6.53;3.38;;;8.90;63.90;;;;;;4991901;28;20022;-83
2020/12/09 11:43:20;;;;;;;5.53;2.78;;;8.80;64.70;;;;;;4990613;28;20022;-82
2020/12/09 11:45:46;;;;;;;;;;;8.80;64.80;;;;;;4990326;28;20116;-82
2020/12/09 11:48:13;;;;;;;5.65;3.00;;;8.70;64.90;;;;;;5005506;28;19909;-82
2020/12/09 11:50:39;;;;;;;14.45;6.03;;;8.70;65.40;;;;;;4995999;28;20030;-82
2020/12/09 11:53:05;;;;;;;7.28;3.97;;;8.70;65.30;;;;;;4995548;28;20038;-82
2020/12/09 11:55:31;;;;;;;;;;;8.70;65.60;;;;;;5010997;28;20022;-82
2020/12/09 11:57:56;;;;;;;7.72;4.38;;;8.60;65.80;;;;;;5010093;28;20378;-83
2020/12/09 12:00:22;;;;;;;;;;;8.60;66.40;;;;;;5011385;28;20121;-82
2020/12/09 12:02:48;;;;;;;6.18;2.95;;;8.60;66.00;;;;;;5009441;28;19917;-81
2020/12/09 12:05:13;;;;;;;;;;;8.60;66.00;;;;;;5009932;28;20105;-83
2020/12/09 12:07:39;;;;;;;6.72;3.25;;;8.60;65.50;;;;;;5008866;28;19920;-83
2020/12/09 12:10:05;;;;;;;;;;;8.60;66.00;;;;;;5010185;28;20156;-81
2020/12/09 12:12:31;;;;;;;6.55;4.10;;;8.60;66.10;;;;;;5011316;28;19917;-82
2020/12/09 12:14:58;;;;;;;6.40;4.18;;;8.60;65.70;;;;;;5009511;28;20014;-82
2020/12/09 12:17:23;;;;;;;6.85;3.03;;;8.60;65.50;;;;;;5009598;28;20029;-82
2020/12/09 12:19:49;;;;;;;;;;;8.60;65.80;;;;;;5010062;28;20113;-81
2020/12/09 12:22:15;;;;;;;5.97;3.00;;;8.50;65.90;;;;;;5009362;28;19905;-83
2020/12/09 12:24:40;;;;;;;;;;;8.50;65.90;;;;;;5009427;28;20057;-82
2020/12/09 12:27:06;;;;;;;4.95;2.85;;;8.50;66.40;;;;;;5009653;28;20373;-83
2020/12/09 12:29:31;;;;;;;;;;;8.50;66.10;;;;;;5009816;28;20030;-82
2020/12/09 12:31:58;;;;;;;6.40;3.50;;;8.40;66.00;;;;;;4993318;28;19921;-82
2020/12/09 12:34:25;;;;;;;6.15;2.97;;;8.40;66.00;;;;;;4994771;28;20022;-83
2020/12/09 12:36:51;;;;;;;6.22;2.92;;;8.40;66.00;;;;;;5000699;28;20026;-82
2020/12/09 12:39:16;;;;;;;;;;;8.40;66.10;;;;;;5011306;28;20529;-81
2020/12/09 12:41:45;;;;;;;7.55;3.10;;;8.30;65.50;;;;;;5009066;28;20335;-81
2020/12/09 12:44:11;;;;;;;10.57;3.88;;;8.40;65.40;;;;;;5010698;28;20033;-81
2020/12/09 12:46:37;;;;;;;;;;;8.40;65.20;;;;;;5009696;28;20026;-82
2020/12/09 12:49:03;;;;;;;9.90;5.45;;;8.30;65.00;;;;;;5010049;28;19909;-81
2020/12/09 12:51:28;;;;;;;;;;;8.40;65.30;;;;;;5009926;28;20045;-81
2020/12/09 12:53:54;;;;;;;10.85;6.63;;;8.30;65.90;;;;;;5009206;28;19905;-82
2020/12/09 12:56:21;;;;;;;11.70;6.43;;;8.30;66.40;;;;;;5009011;28;20514;-82
2020/12/09 12:58:48;;;;;;;14.23;6.82;;;8.30;65.80;;;;;;5009240;28;20178;-82
2020/12/09 13:01:15;;;;;;;25.30;10.82;;;8.30;66.10;;;;;;5010384;28;20080;-81
2020/12/09 13:03:41;;;;;;;13.10;7.15;;;8.40;65.90;;;;;;5009098;28;20053;-81
2020/12/09 13:06:06;;;;;;;;;;;8.30;65.60;;;;;;5009477;28;20021;-82
2020/12/09 13:08:33;;;;;;;11.40;6.82;;;8.30;65.80;;;;;;5008689;28;19905;-83
2020/12/09 13:10:59;;;;;;;11.63;6.03;;;8.30;66.10;;;;;;5010315;28;20044;-83
2020/12/09 13:13:25;;;;;;;;;;;8.30;65.80;;;;;;5009141;28;20120;-82
2020/12/09 13:15:51;;;;;;;18.83;8.52;;;8.20;66.80;;;;;;5009012;28;20358;-83
2020/12/09 13:18:16;;;;;;;;;;;8.20;67.20;;;;;;5008974;28;20030;-82
2020/12/09 13:20:42;;;;;;;15.38;8.20;;;8.20;66.90;;;;;;5010170;28;19913;-83
2020/12/09 13:23:07;;;;;;;;;;;8.10;67.60;;;;;;5009231;28;20034;-82
2020/12/09 13:25:33;;;;;;;13.15;6.57;;;8.10;68.00;;;;;;5008651;28;19913;-83